Latest Weather Observations for Tewantin

IDQ60901

Issued at 3:05 pm EST Wednesday 30 July 2014 (issued every 10 minutes, with the page automatically refreshed every 10 minutes)

About weather observations | Map of Brisbane area stations | Latest observations for Brisbane area | Other Formats
Station Details ID: 040908 Name: TEWANTIN RSL PARK Lat: -26.39 Lon: 153.04 Height: 6.4 m
Data from the previous 72 hours. | See also: Recent months at Tewantin
Date/Time
EST
Tmp

°C
App
Tmp
°C
Dew
Point
°C
Rel
Hum
%
Delta-T

°C
Wind Press
QNH
hPa
Press
MSL
hPa
Rain
since
9 am
mm
Dir
 
Spd
km/h
Gust
km/h
Spd
kts
Gust
kts
30/03:00pm 21.9 19.5 13.8 60 4.7 NNE 19 26 10 14 1018.4 1018.4 0.0
30/02:30pm 22.1 20.0 13.7 59 4.9 NNE 17 26 9 14 1018.6 - 0.0
30/02:00pm 24.0 22.4 10.3 42 7.5 N 9 15 5 8 1018.9 1018.9 0.0
30/01:30pm 24.2 22.5 11.2 44 7.3 N 11 17 6 9 1019.4 - 0.0
30/01:00pm 23.7 21.9 10.7 44 7.2 N 11 19 6 10 1019.8 1019.8 0.0
30/12:30pm 23.5 21.4 11.2 46 6.9 N 13 20 7 11 1020.4 - 0.0
30/12:00pm 23.1 20.6 9.8 43 7.2 N 13 19 7 10 1021.1 1021.1 0.0
30/11:30am 23.2 20.9 11.6 48 6.5 N 15 22 8 12 1021.6 - 0.0
30/11:00am 21.9 19.6 10.4 48 6.3 NNW 13 20 7 11 1022.3 1022.3 0.0
30/10:30am 20.8 19.0 12.2 58 4.8 N 13 19 7 10 1022.8 - 0.0
30/10:00am 21.1 20.0 12.0 56 5.1 NW 9 15 5 8 1023.2 1023.2 0.0
30/09:30am 19.9 18.9 12.4 62 4.2 NW 9 15 5 8 1023.5 - 0.0
30/09:00am 18.3 17.8 12.1 67 3.4 NNW 6 13 3 7 1023.7 1023.7 0.0
30/08:30am 15.9 16.0 12.6 81 1.8 NNE 4 7 2 4 1023.5 - 0.0
30/08:00am 13.8 14.0 11.8 88 1.1 NNW 2 6 1 3 1023.5 1023.5 0.0
30/07:30am 11.6 11.8 10.7 94 0.5 CALM 0 6 0 3 1023.4 - 0.0
30/07:00am 10.5 10.6 10.3 99 0.1 CALM 0 0 0 0 1023.1 1023.1 0.0
30/06:30am 10.2 10.3 10.0 99 0.1 CALM 0 0 0 0 1022.9 - 0.0
30/06:00am 10.5 10.6 10.3 99 0.1 NNW 0 0 0 0 1022.6 1022.6 0.0
30/05:30am 10.2 9.9 10.0 99 0.1 NNW 2 7 1 4 1022.2 - 0.0
30/05:00am 10.2 9.5 10.0 99 0.1 NW 4 7 2 4 1021.9 1021.9 0.0
30/04:30am 10.5 10.6 10.3 99 0.1 CALM 0 0 0 0 1021.7 - 0.0
30/04:00am 10.7 10.9 10.5 99 0.1 CALM 0 0 0 0 1021.6 1021.6 0.0
30/03:30am 11.2 11.5 11.0 99 0.1 CALM 0 0 0 0 1021.6 - 0.0
30/03:00am 11.4 10.6 11.2 99 0.1 N 6 6 3 3 1021.6 1021.6 0.0
30/02:30am 11.5 11.9 11.3 99 0.1 CALM 0 0 0 0 1021.7 - 0.0
30/02:00am 11.5 11.9 11.2 98 0.2 CALM 0 0 0 0 1021.6 1021.6 0.0
30/01:30am 11.9 12.4 11.6 98 0.2 CALM 0 0 0 0 1021.6 - 0.0
30/01:00am 12.0 12.5 11.5 97 0.3 CALM 0 0 0 0 1021.8 1021.8 0.0
30/12:30am 12.3 12.4 11.4 94 0.5 NW 2 6 1 3 1021.9 - 0.0
30/12:00am 12.7 12.9 11.9 95 0.4 N 2 6 1 3 1022.0 1022.0 0.0
 
Date/Time
EST
Tmp

°C
App
Tmp
°C
Dew
Point
°C
Rel
Hum
%
Delta-T

°C
Wind Press
QNH
hPa
Press
MSL
hPa
Rain
since
9 am
mm
Dir
 
Spd
km/h
Gust
km/h
Spd
kts
Gust
kts
29/11:30pm 13.1 13.7 12.0 93 0.6 CALM 0 0 0 0 1022.0 - 0.0
29/11:00pm 13.4 13.9 11.5 88 1.0 CALM 0 0 0 0 1022.0 1022.0 0.0
29/10:30pm 14.6 14.2 12.3 86 1.3 NNW 6 7 3 4 1021.9 - 0.0
29/10:00pm 15.1 14.8 12.6 85 1.4 N 6 9 3 5 1021.8 1021.8 0.0
29/09:30pm 15.2 14.8 12.5 84 1.5 N 6 7 3 4 1021.7 - 0.0
29/09:00pm 16.0 15.4 12.4 79 2.0 N 7 7 4 4 1021.5 1021.5 0.0
29/08:30pm 16.7 16.1 12.3 75 2.4 NNW 7 9 4 5 1021.4 - 0.0
29/08:00pm 16.5 16.2 13.4 82 1.7 N 7 13 4 7 1021.3 1021.3 0.0
29/07:30pm 17.4 16.9 12.1 71 2.9 NNW 6 9 3 5 1021.1 - 0.0
29/07:00pm 18.1 17.2 12.5 70 3.1 N 9 13 5 7 1020.8 1020.8 0.0
29/06:30pm 18.7 18.3 13.1 70 3.2 N 7 11 4 6 1020.5 - 0.0
29/06:00pm 18.9 18.2 14.4 75 2.6 NNE 11 15 6 8 1020.1 1020.1 0.0
29/05:30pm 19.3 18.6 14.3 73 2.9 NE 11 17 6 9 1019.9 - 0.0
29/05:00pm 20.0 18.6 14.6 71 3.1 NNE 15 22 8 12 1019.5 1019.5 0.0
29/04:30pm 20.6 19.0 13.8 65 3.9 NNE 15 24 8 13 1019.3 - 0.0
29/04:00pm 21.0 19.8 13.9 64 4.1 NNE 13 24 7 13 1019.3 1019.3 0.0
29/03:30pm 21.3 19.7 14.0 63 4.2 NNE 15 22 8 12 1019.1 - 0.0
29/03:00pm 22.4 20.7 12.4 53 5.7 NE 13 20 7 11 1019.0 1019.0 0.0
29/02:30pm 24.1 23.7 8.1 36 8.5 CALM 0 6 0 3 1019.0 - 0.0
29/02:00pm 24.7 22.8 9.0 37 8.5 WNW 9 17 5 9 1019.4 1019.4 0.0
29/01:30pm 24.4 23.0 9.6 39 8.1 NNW 7 13 4 7 1019.8 - 0.0
29/01:00pm 24.4 22.6 8.0 35 8.7 WSW 7 20 4 11 1020.2 1020.2 0.0
29/12:30pm 23.6 21.4 9.2 40 7.8 NNW 11 17 6 9 1020.6 - 0.0
29/12:00pm 22.7 20.8 10.5 46 6.7 NNW 11 19 6 10 1021.2 1021.2 0.0
29/11:30am 22.0 18.5 10.2 47 6.4 N 19 28 10 15 1021.9 - 0.0
29/11:00am 22.1 19.9 10.9 49 6.2 NW 13 22 7 12 1022.4 1022.4 0.0
29/10:30am 21.2 20.1 11.8 55 5.2 WNW 9 19 5 10 1022.7 - 0.0
29/10:00am 20.3 19.3 12.3 60 4.5 NW 9 15 5 8 1023.0 1023.0 0.0
29/09:30am 18.6 17.3 11.4 63 3.9 NNW 9 13 5 7 1023.3 - 0.0
29/09:00am 17.8 16.6 11.6 67 3.4 NW 9 15 5 8 1023.5 1023.5 0.2
29/08:30am 15.9 16.0 11.5 75 2.4 NW 2 7 1 4 1023.5 - 0.2
29/08:00am 14.1 13.8 11.3 83 1.5 NW 4 9 2 5 1023.4 1023.4 0.2
29/07:30am 11.6 11.4 10.3 92 0.7 NNW 2 6 1 3 1023.1 - 0.2
29/07:00am 10.1 9.7 9.8 98 0.1 NNW 2 7 1 4 1022.9 1022.9 0.2
29/06:30am 9.7 8.3 8.9 95 0.4 NW 6 7 3 4 1022.6 - 0.2
29/06:00am 10.4 9.0 9.6 95 0.4 NW 7 9 4 5 1022.1 1022.1 0.2
29/05:30am 10.2 9.9 10.0 99 0.1 W 2 7 1 4 1021.8 - 0.2
29/05:00am 10.1 8.9 9.6 97 0.2 NW 6 7 3 4 1021.5 1021.5 0.2
29/04:30am 10.5 9.5 10.2 98 0.2 NW 6 7 3 4 1021.3 - 0.2
29/04:00am 10.6 9.6 10.4 99 0.1 NNW 6 7 3 4 1021.2 1021.2 0.2
29/03:30am 10.5 9.5 10.3 99 0.1 NNW 6 7 3 4 1021.1 - 0.2
29/03:00am 10.4 10.5 10.2 99 0.1 CALM 0 0 0 0 1021.3 1021.3 0.2
29/02:30am 10.7 10.9 10.5 99 0.1 CALM 0 0 0 0 1021.4 - 0.2
29/02:00am 10.7 10.9 10.5 99 0.1 CALM 0 0 0 0 1021.6 1021.6 0.2
29/01:30am 10.9 11.1 10.7 99 0.1 CALM 0 0 0 0 1021.6 - 0.2
29/01:00am 11.1 11.4 10.9 99 0.1 CALM 0 0 0 0 1021.8 1021.8 0.2
29/12:30am 11.3 11.6 11.0 98 0.2 CALM 0 0 0 0 1022.1 - 0.2
29/12:00am 11.4 11.7 10.8 96 0.3 CALM 0 0 0 0 1022.3 1022.3 0.2
 
Date/Time
EST
Tmp

°C
App
Tmp
°C
Dew
Point
°C
Rel
Hum
%
Delta-T

°C
Wind Press
QNH
hPa
Press
MSL
hPa
Rain
since
9 am
mm
Dir
 
Spd
km/h
Gust
km/h
Spd
kts
Gust
kts
28/11:30pm 11.8 12.2 11.3 97 0.3 CALM 0 0 0 0 1022.4 - 0.2
28/11:00pm 12.2 12.8 11.9 98 0.2 CALM 0 0 0 0 1022.4 1022.4 0.2
28/10:30pm 12.2 12.3 11.6 96 0.3 SW 2 7 1 4 1022.6 - 0.2
28/10:00pm 12.4 12.9 11.6 95 0.4 CALM 0 0 0 0 1022.6 1022.6 0.2
28/09:30pm 12.6 13.0 11.2 91 0.7 CALM 0 0 0 0 1022.5 - 0.2
28/09:00pm 12.9 13.4 11.5 91 0.7 CALM 0 0 0 0 1022.3 1022.3 0.2
28/08:30pm 13.6 14.3 12.2 91 0.8 CALM 0 0 0 0 1022.2 - 0.2
28/08:00pm 13.9 14.5 11.9 88 1.1 CALM 0 0 0 0 1022.0 1022.0 0.2
28/07:30pm 14.7 15.4 12.2 85 1.4 CALM 0 0 0 0 1021.9 - 0.2
28/07:00pm 15.6 15.5 12.2 80 1.8 SW 4 7 2 4 1021.6 1021.6 0.2
28/06:30pm 16.6 17.3 12.2 75 2.4 CALM 0 7 0 4 1021.2 - 0.2
28/06:00pm 17.5 18.1 12.0 70 3.0 CALM 0 6 0 3 1020.9 1020.9 0.2
28/05:30pm 18.0 17.5 12.5 70 3.1 NNE 7 9 4 5 1020.7 - 0.2
28/05:00pm 18.7 17.5 12.9 69 3.2 NNE 11 19 6 10 1020.6 1020.6 0.2
28/04:30pm 19.3 17.7 12.8 66 3.7 NE 13 19 7 10 1020.5 - 0.2
28/04:00pm 19.6 17.9 12.4 63 4.0 NE 13 22 7 12 1020.3 1020.3 0.2
28/03:30pm 19.7 17.3 12.5 63 4.0 NNE 17 24 9 13 1020.4 - 0.2
28/03:00pm 20.1 18.1 12.8 63 4.1 NNE 15 22 8 12 1020.3 1020.3 0.2
28/02:30pm 20.6 18.3 11.8 57 4.9 NE 15 19 8 10 1020.5 - 0.2
28/02:00pm 21.1 18.9 12.0 56 5.1 NE 15 22 8 12 1020.8 1020.8 0.0
28/01:30pm 21.5 20.2 12.6 57 5.0 NNE 11 20 6 11 1021.1 - 0.0
28/01:00pm 21.6 20.1 10.4 49 6.1 NNE 9 13 5 7 1021.5 1021.5 0.0
28/12:30pm 21.4 20.0 10.9 51 5.8 N 9 17 5 9 1021.9 - 0.0
28/12:00pm 20.4 19.4 10.2 52 5.5 ENE 6 9 3 5 1022.6 1022.6 0.0
28/11:30am 20.4 18.4 10.2 52 5.5 N 11 20 6 11 1023.2 - 0.0
28/11:00am 20.7 18.8 10.5 52 5.5 N 11 19 6 10 1023.6 1023.6 0.0
28/10:30am 20.6 19.7 10.7 53 5.4 NW 6 13 3 7 1024.0 - 0.0
28/10:00am 20.1 20.1 11.3 57 4.8 NW 2 7 1 4 1024.1 1024.1 0.0
28/09:30am 19.0 19.7 12.3 65 3.7 CALM 0 6 0 3 1024.4 - 0.0
28/09:00am 17.7 17.3 12.4 71 2.9 NNW 6 7 3 4 1024.3 1024.3 0.0
28/08:30am 15.9 16.1 11.7 76 2.3 W 2 7 1 4 1024.2 - 0.0
28/08:00am 13.7 14.1 11.2 85 1.3 CALM 0 6 0 3 1024.1 1024.1 0.0
28/07:30am 11.6 11.1 10.7 94 0.5 WNW 4 7 2 4 1023.9 - 0.0
28/07:00am 9.8 9.8 9.7 99 0.0 CALM 0 0 0 0 1023.8 1023.8 0.0
28/06:30am 9.3 9.1 9.2 99 0.0 CALM 0 0 0 0 1023.6 - 0.0
28/06:00am 9.4 9.3 9.3 99 0.0 CALM 0 0 0 0 1023.2 1023.2 0.0
28/05:30am 9.6 9.5 9.5 99 0.0 CALM 0 0 0 0 1023.0 - 0.0
28/05:00am 9.8 9.7 9.5 98 0.1 CALM 0 0 0 0 1022.7 1022.7 0.0
28/04:30am 10.1 10.1 9.9 99 0.1 CALM 0 0 0 0 1022.6 - 0.0
28/04:00am 10.4 10.5 10.2 99 0.1 CALM 0 0 0 0 1022.5 1022.5 0.0
28/03:30am 10.6 10.8 10.4 99 0.1 CALM 0 0 0 0 1022.5 - 0.0
28/03:00am 10.6 10.8 10.4 99 0.1 CALM 0 0 0 0 1022.5 1022.5 0.0
28/02:30am 10.7 10.9 10.5 99 0.1 CALM 0 0 0 0 1022.4 - 0.0
28/02:00am 10.6 10.7 10.1 97 0.3 CALM 0 0 0 0 1022.7 1022.7 0.0
28/01:30am 10.8 10.9 10.2 96 0.3 CALM 0 0 0 0 1023.2 - 0.0
28/01:00am 11.3 11.5 10.5 95 0.4 CALM 0 0 0 0 1023.3 1023.3 0.0
28/12:30am 11.9 11.9 11.3 96 0.3 SW 2 6 1 3 1023.3 - 0.0
28/12:00am 12.1 12.7 11.8 98 0.2 CALM 0 0 0 0 1023.2 1023.2 0.0
 
Date/Time
EST
Tmp

°C
App
Tmp
°C
Dew
Point
°C
Rel
Hum
%
Delta-T

°C
Wind Press
QNH
hPa
Press
MSL
hPa
Rain
since
9 am
mm
Dir
 
Spd
km/h
Gust
km/h
Spd
kts
Gust
kts
27/11:30pm 11.9 12.2 11.0 94 0.5 CALM 0 0 0 0 1023.4 - 0.0
27/11:00pm 12.6 13.1 11.5 93 0.6 CALM 0 0 0 0 1023.7 1023.7 0.0
27/10:30pm 12.5 12.9 11.4 93 0.6 CALM 0 0 0 0 1023.6 - 0.0
27/10:00pm 12.6 13.0 11.2 91 0.7 CALM 0 0 0 0 1023.7 1023.7 0.0
27/09:30pm 12.9 13.3 11.1 89 0.9 CALM 0 0 0 0 1023.5 - 0.0
27/09:00pm 13.0 13.2 10.5 85 1.3 CALM 0 0 0 0 1023.6 1023.6 0.0
27/08:30pm 13.8 14.1 10.8 82 1.6 CALM 0 0 0 0 1023.4 - 0.0
27/08:00pm 14.3 14.5 10.7 79 1.9 CALM 0 0 0 0 1023.3 1023.3 0.0
27/07:30pm 15.2 15.4 10.6 74 2.4 CALM 0 0 0 0 1023.1 - 0.0
27/07:00pm 16.1 15.9 10.4 69 3.0 SW 2 6 1 3 1022.9 1022.9 0.0
27/06:30pm 16.9 16.3 10.5 66 3.4 WSW 4 9 2 5 1022.6 - 0.0
27/06:00pm 18.0 16.8 10.4 61 4.0 SSE 7 11 4 6 1022.1 1022.1 0.0
27/05:30pm 18.5 17.2 9.8 57 4.6 SSE 7 13 4 7 1021.7 - 0.0
27/05:00pm 19.2 17.3 9.1 52 5.3 SE 9 13 5 7 1021.3 1021.3 0.0
27/04:30pm 19.6 17.6 10.0 54 5.1 SE 11 19 6 10 1021.1 - 0.0
27/04:00pm 19.9 17.6 10.6 55 5.0 ESE 13 24 7 13 1021.0 1021.0 0.0
27/03:30pm 20.1 18.2 10.5 54 5.2 SE 11 22 6 12 1021.0 - 0.0

Latest Capital City Observations: Canberra | Sydney | Melbourne | Brisbane | Adelaide | Perth | Hobart | Darwin

Other Formats:

Comma delimited format used in spreadsheet applications
http://www.bom.gov.au/fwo/IDQ60901/IDQ60901.94570.axf

JavaScript Object Notation format (JSON) in row-major order
http://www.bom.gov.au/fwo/IDQ60901/IDQ60901.94570.json